Time;durP1;ratioP1;P1;durP2;ratioP2;P2;SDS_P1;SDS_P2;PMS_P1;PMS_P2;Temp;Humidity;BMP_temperature;BMP_pressure;BME280_temperature;BME280_humidity;BME280_pressure;Samples;Min_cycle;Max_cycle;Signal;HPM_P1;HPM_P2
2023/05/05 00:00:58;;;;;;;4.72;0.85;;;-0.10;99.90;;;;;;4954556;28;20051;-73
2023/05/05 00:03:26;;;;;;;1.42;0.65;;;0.00;99.90;;;;;;4952428;28;20496;-63
2023/05/05 00:05:53;;;;;;;1.52;1.42;;;0.00;99.90;;;;;;4951185;28;20063;-64
2023/05/05 00:08:21;;;;;;;1.33;0.80;;;0.00;99.70;;;;;;4955804;28;20059;-64
2023/05/05 00:10:49;;;;;;;1.25;0.80;;;0.10;99.60;;;;;;4951714;28;20070;-63
2023/05/05 00:13:17;;;;;;;2.13;0.68;;;0.10;99.60;;;;;;4951627;28;20130;-63
2023/05/05 00:15:46;;;;;;;0.63;0.60;;;0.10;99.40;;;;;;4952200;28;20528;-64
2023/05/05 00:18:15;;;;;;;0.70;0.50;;;0.20;99.50;;;;;;4949273;28;20057;-62
2023/05/05 00:20:46;;;;;;;0.60;0.30;;;0.20;99.40;;;;;;4926039;28;20051;-61
2023/05/05 00:23:18;;;;;;;1.27;0.80;;;0.20;99.50;;;;;;4932752;29;20118;-61
2023/05/05 00:25:45;;;;;;;0.73;0.52;;;0.20;99.50;;;;;;4938064;29;20070;-62
2023/05/05 00:28:15;;;;;;;1.20;0.98;;;0.30;99.70;;;;;;4952507;28;20043;-66
2023/05/05 00:30:42;;;;;;;0.85;0.63;;;0.30;99.60;;;;;;4951880;28;20058;-72
2023/05/05 00:33:09;;;;;;;0.75;0.60;;;0.40;99.50;;;;;;4942681;28;20050;-63
2023/05/05 00:35:35;;;;;;;1.67;0.98;;;0.40;99.30;;;;;;4954552;28;20043;-66
2023/05/05 00:38:03;;;;;;;3.53;0.60;;;0.40;99.40;;;;;;4948255;28;20529;-67
2023/05/05 00:40:30;;;;;;;1.60;0.73;;;0.40;99.50;;;;;;4950349;28;20054;-68
2023/05/05 00:42:58;;;;;;;1.02;0.65;;;0.40;99.50;;;;;;4947191;28;20076;-66
2023/05/05 00:45:25;;;;;;;2.00;0.80;;;0.40;99.50;;;;;;4935015;28;20247;-70
2023/05/05 00:47:57;;;;;;;0.70;0.70;;;0.30;99.50;;;;;;4950610;28;20058;-65
2023/05/05 00:50:27;;;;;;;1.42;0.95;;;0.30;99.60;;;;;;4938804;28;20066;-63
2023/05/05 00:53:05;;;;;;;1.88;1.02;;;0.30;99.90;;;;;;4954854;28;20051;-64
2023/05/05 00:55:33;;;;;;;0.80;0.60;;;0.30;99.90;;;;;;4946731;28;20521;-65
2023/05/05 00:58:02;;;;;;;0.65;0.50;;;0.30;99.90;;;;;;4958473;28;20047;-64
2023/05/05 01:00:29;;;;;;;1.52;0.80;;;0.30;99.90;;;;;;4957593;28;20054;-63
2023/05/05 01:02:56;;;;;;;1.65;0.80;;;0.30;99.90;;;;;;4950008;28;20067;-78
2023/05/05 01:05:25;;;;;;;2.50;0.93;;;0.30;99.90;;;;;;4950890;28;20490;-63
2023/05/05 01:08:16;;;;;;;1.83;0.65;;;0.30;99.90;;;;;;4950311;28;20043;-63
2023/05/05 01:10:51;;;;;;;1.85;0.68;;;0.30;99.90;;;;;;4948955;28;20117;-64
2023/05/05 01:13:36;;;;;;;1.45;0.70;;;0.30;99.90;;;;;;4950459;28;20058;-63
2023/05/05 01:16:08;;;;;;;5.07;1.23;;;0.30;99.90;;;;;;4938119;29;20058;-64
2023/05/05 01:18:48;;;;;;;0.50;0.50;;;0.30;99.90;;;;;;4929603;29;20056;-66
2023/05/05 01:21:26;;;;;;;2.17;0.77;;;0.30;99.90;;;;;;4933397;29;20143;-62
2023/05/05 01:24:09;;;;;;;4.30;0.82;;;0.30;99.90;;;;;;4929972;29;20052;-65
2023/05/05 01:26:59;;;;;;;3.25;1.20;;;0.30;99.90;;;;;;4938409;28;20134;-80
2023/05/05 01:29:46;;;;;;;1.40;0.73;;;0.30;99.90;;;;;;4950710;28;20051;-65
2023/05/05 01:32:16;;;;;;;1.90;0.63;;;0.30;99.90;;;;;;4949869;28;20055;-66
2023/05/05 01:34:52;;;;;;;3.10;1.20;;;0.30;99.90;;;;;;4946473;28;20513;-67
2023/05/05 01:37:26;;;;;;;1.15;0.80;;;0.30;99.90;;;;;;4946491;28;20051;-65
2023/05/05 01:39:58;;;;;;;2.55;0.80;;;0.20;99.90;;;;;;4939460;28;20047;-67
2023/05/05 01:42:28;;;;;;;1.50;0.82;;;0.20;99.90;;;;;;4949864;28;20134;-64
2023/05/05 01:44:55;;;;;;;0.98;0.68;;;0.20;99.90;;;;;;4957552;28;20417;-65
2023/05/05 01:47:23;;;;;;;1.00;0.60;;;0.30;99.90;;;;;;4953916;28;20146;-67
2023/05/05 01:49:51;;;;;;;1.52;1.10;;;0.20;99.90;;;;;;4951605;28;20090;-66
2023/05/05 01:52:19;;;;;;;1.02;0.93;;;0.20;99.90;;;;;;4946215;28;20479;-65
2023/05/05 01:54:49;;;;;;;1.55;1.10;;;0.20;99.90;;;;;;4948555;28;20138;-63
2023/05/05 01:57:17;;;;;;;1.52;1.00;;;0.20;99.90;;;;;;4949999;28;20078;-64
2023/05/05 01:59:44;;;;;;;2.78;0.70;;;0.20;99.90;;;;;;4948023;28;20048;-77
2023/05/05 02:02:13;;;;;;;3.95;1.20;;;0.10;99.90;;;;;;4959278;28;20053;-64
2023/05/05 02:04:43;;;;;;;2.08;0.88;;;0.10;99.90;;;;;;4948444;28;20450;-62
2023/05/05 02:07:11;;;;;;;;;;;0.10;99.90;;;;;;4955201;28;20069;-66
2023/05/05 02:09:39;;;;;;;2.97;1.10;;;0.00;99.90;;;;;;4954065;28;19931;-73
2023/05/05 02:12:07;;;;;;;2.00;1.20;;;0.00;99.90;;;;;;4943105;28;20043;-64
2023/05/05 02:14:35;;;;;;;2.45;0.82;;;0.00;99.90;;;;;;4958358;28;20130;-63
2023/05/05 02:17:02;;;;;;;3.80;1.08;;;0.00;99.90;;;;;;4943056;28;20134;-63
2023/05/05 02:19:35;;;;;;;1.08;0.98;;;-0.10;99.90;;;;;;4945636;28;20057;-64
2023/05/05 02:22:02;;;;;;;2.85;1.20;;;-0.10;99.90;;;;;;4948920;28;20059;-64
2023/05/05 02:24:29;;;;;;;2.13;1.30;;;-0.10;99.90;;;;;;4942038;28;20066;-64
2023/05/05 02:26:58;;;;;;;2.03;1.20;;;-0.20;99.90;;;;;;4950165;28;20047;-64
2023/05/05 02:29:31;;;;;;;1.45;1.20;;;-0.20;99.90;;;;;;4947379;28;20054;-65
2023/05/05 02:32:03;;;;;;;1.70;1.05;;;-0.30;99.90;;;;;;4943301;28;20260;-65
2023/05/05 02:34:35;;;;;;;1.50;0.95;;;-0.30;99.90;;;;;;4956890;28;20071;-65
2023/05/05 02:37:08;;;;;;;1.75;1.02;;;-0.40;99.90;;;;;;4963435;28;20059;-63
2023/05/05 02:39:42;;;;;;;2.92;1.00;;;-0.40;99.90;;;;;;4959516;28;20061;-68
2023/05/05 02:42:17;;;;;;;3.58;1.38;;;-0.40;99.90;;;;;;4962468;28;20055;-63
2023/05/05 02:44:45;;;;;;;1.83;0.98;;;-0.50;99.90;;;;;;4954307;28;20047;-64
2023/05/05 02:47:12;;;;;;;2.90;1.55;;;-0.50;99.90;;;;;;4948489;28;20054;-65
2023/05/05 02:49:39;;;;;;;1.60;1.35;;;-0.50;99.90;;;;;;4947232;28;20048;-66
2023/05/05 02:52:07;;;;;;;2.25;1.00;;;-0.50;99.90;;;;;;4945158;28;20083;-65
2023/05/05 02:54:36;;;;;;;1.48;1.00;;;-0.50;99.90;;;;;;4931223;28;20047;-68
2023/05/05 02:57:15;;;;;;;2.47;1.30;;;-0.50;99.90;;;;;;4959466;28;20047;-65
2023/05/05 02:59:55;;;;;;;1.67;1.00;;;-0.60;99.90;;;;;;4964693;28;20059;-76
2023/05/05 03:02:34;;;;;;;4.68;1.92;;;-0.60;99.90;;;;;;4960596;28;20083;-64
2023/05/05 03:05:09;;;;;;;1.52;0.93;;;-0.60;99.90;;;;;;4946869;28;20509;-66
2023/05/05 03:07:52;;;;;;;1.65;1.00;;;-0.60;99.90;;;;;;4956310;28;20047;-63
2023/05/05 03:10:26;;;;;;;1.77;1.58;;;-0.60;99.90;;;;;;4965835;28;20054;-64
2023/05/05 03:12:57;;;;;;;3.05;1.67;;;-0.70;99.90;;;;;;4957851;28;20051;-67
2023/05/05 03:15:34;;;;;;;4.38;1.30;;;-0.60;99.90;;;;;;4964419;28;20047;-68
2023/05/05 03:18:02;;;;;;;2.92;1.30;;;-0.60;99.90;;;;;;4962560;28;20059;-65
2023/05/05 03:20:30;;;;;;;1.30;0.90;;;-0.60;99.90;;;;;;4950097;28;20063;-61
2023/05/05 03:23:02;;;;;;;4.95;1.30;;;-0.60;99.90;;;;;;4961407;28;20059;-63
2023/05/05 03:25:46;;;;;;;1.25;1.00;;;-0.60;99.90;;;;;;4957010;28;20078;-63
2023/05/05 03:28:26;;;;;;;1.67;1.10;;;-0.60;99.90;;;;;;4955898;28;20054;-64
2023/05/05 03:30:53;;;;;;;3.85;1.33;;;-0.60;99.90;;;;;;4955339;28;20047;-63
2023/05/05 03:33:21;;;;;;;1.17;1.00;;;-0.50;99.90;;;;;;4945955;28;20077;-69
2023/05/05 03:35:48;;;;;;;2.67;1.45;;;-0.50;99.90;;;;;;4954192;28;20059;-64
2023/05/05 03:38:15;;;;;;;2.05;1.35;;;-0.40;99.90;;;;;;4962839;28;20601;-64
2023/05/05 03:40:42;;;;;;;2.45;1.10;;;-0.40;99.90;;;;;;4963880;28;20867;-68
2023/05/05 03:43:13;;;;;;;3.15;1.30;;;-0.40;99.90;;;;;;4958056;28;20122;-64
2023/05/05 03:45:40;;;;;;;2.38;1.00;;;-0.30;99.90;;;;;;4945071;28;20059;-64
2023/05/05 03:48:08;;;;;;;7.47;1.45;;;-0.30;99.90;;;;;;4960537;28;20114;-63
2023/05/05 03:50:37;;;;;;;2.92;1.58;;;-0.30;99.90;;;;;;4963239;28;20493;-73
2023/05/05 03:53:04;;;;;;;3.90;1.35;;;-0.20;99.90;;;;;;4964384;28;20051;-65
2023/05/05 03:55:31;;;;;;;2.35;1.15;;;-0.20;99.90;;;;;;4951411;28;20059;-77
2023/05/05 03:57:58;;;;;;;3.55;1.38;;;-0.20;99.90;;;;;;4967059;28;20138;-64
2023/05/05 04:00:26;;;;;;;2.50;1.30;;;-0.10;99.90;;;;;;4960238;28;20138;-63
2023/05/05 04:02:53;;;;;;;2.03;1.13;;;-0.10;99.90;;;;;;4943256;28;20107;-65
2023/05/05 04:05:21;;;;;;;3.15;1.15;;;0.00;99.90;;;;;;4949408;28;20139;-66
2023/05/05 04:07:48;;;;;;;1.80;1.60;;;0.10;99.90;;;;;;4948492;28;20491;-66
2023/05/05 04:10:15;;;;;;;1.35;1.10;;;0.10;99.90;;;;;;4945760;28;20046;-70
2023/05/05 04:12:42;;;;;;;9.93;1.67;;;0.20;99.90;;;;;;4958139;28;20043;-64
2023/05/05 04:15:09;;;;;;;2.03;0.73;;;0.30;99.90;;;;;;4943148;28;20126;-65
2023/05/05 04:17:36;;;;;;;2.88;1.30;;;0.30;99.90;;;;;;4960180;28;20143;-67
2023/05/05 04:20:05;;;;;;;2.97;1.50;;;0.30;99.90;;;;;;4947287;28;20390;-64
2023/05/05 04:22:32;;;;;;;2.63;1.00;;;0.40;99.90;;;;;;4950460;28;20138;-65
2023/05/05 04:25:00;;;;;;;2.00;1.20;;;0.40;99.90;;;;;;4962042;28;20346;-64
2023/05/05 04:27:28;;;;;;;2.90;1.23;;;0.50;99.90;;;;;;4964449;28;20051;-64
2023/05/05 04:29:57;;;;;;;4.17;1.67;;;0.60;99.90;;;;;;4953778;28;20055;-66
2023/05/05 04:32:24;;;;;;;1.58;1.00;;;0.60;99.90;;;;;;4962737;28;20716;-64
2023/05/05 04:34:51;;;;;;;2.15;1.75;;;0.70;99.90;;;;;;4946589;28;20054;-64
2023/05/05 04:37:18;;;;;;;2.05;1.08;;;0.80;99.90;;;;;;4966419;28;20055;-66
2023/05/05 04:39:45;;;;;;;1.92;1.40;;;0.80;99.90;;;;;;4965178;28;20054;-65
2023/05/05 04:42:12;;;;;;;5.93;1.10;;;0.90;99.90;;;;;;4961431;28;20052;-63
2023/05/05 04:44:40;;;;;;;1.83;1.40;;;1.00;99.90;;;;;;4965445;28;20059;-65
2023/05/05 04:47:07;;;;;;;2.22;1.58;;;1.10;99.90;;;;;;4962932;28;20102;-67
2023/05/05 04:49:34;;;;;;;2.88;1.05;;;1.20;99.90;;;;;;4962967;28;20052;-71
2023/05/05 04:52:01;;;;;;;2.25;1.25;;;1.30;99.90;;;;;;4963805;28;20104;-64
2023/05/05 04:54:28;;;;;;;6.07;1.30;;;1.40;99.90;;;;;;4959237;28;20070;-64
2023/05/05 04:56:55;;;;;;;1.35;1.10;;;1.40;99.90;;;;;;4957138;28;20489;-64
2023/05/05 04:59:21;;;;;;;1.75;1.08;;;1.50;99.90;;;;;;4945995;28;20091;-62
2023/05/05 05:01:48;;;;;;;3.30;1.20;;;1.60;99.90;;;;;;4950317;28;20079;-71
2023/05/05 05:04:17;;;;;;;4.45;2.03;;;1.60;99.90;;;;;;4957970;28;20055;-71
2023/05/05 05:06:44;;;;;;;3.22;1.63;;;1.70;99.90;;;;;;4963353;28;20051;-65
2023/05/05 05:09:12;;;;;;;2.20;1.13;;;1.80;99.90;;;;;;4955665;28;20957;-76
2023/05/05 05:11:39;;;;;;;2.92;0.75;;;1.90;99.90;;;;;;4943850;28;20433;-65
2023/05/05 05:14:06;;;;;;;4.80;1.10;;;1.90;99.90;;;;;;4963460;28;20098;-65
2023/05/05 05:16:33;;;;;;;1.50;1.40;;;2.00;99.90;;;;;;4949238;28;20480;-63
2023/05/05 05:18:59;;;;;;;2.25;1.20;;;2.10;99.90;;;;;;4949298;28;20047;-64
2023/05/05 05:21:28;;;;;;;1.70;1.27;;;2.20;99.90;;;;;;4958496;28;20063;-67
2023/05/05 05:23:55;;;;;;;3.22;1.10;;;2.30;99.90;;;;;;4948922;28;20083;-67
2023/05/05 05:26:23;;;;;;;3.75;1.48;;;2.40;99.90;;;;;;4947154;28;20502;-68
2023/05/05 05:28:50;;;;;;;3.30;1.50;;;2.40;99.90;;;;;;4949896;28;20449;-64
2023/05/05 05:31:17;;;;;;;3.92;1.30;;;2.60;99.90;;;;;;4946732;28;20081;-69
2023/05/05 05:33:45;;;;;;;2.47;1.00;;;2.60;99.90;;;;;;4949151;28;20063;-64
2023/05/05 05:36:13;;;;;;;3.00;1.50;;;2.70;99.90;;;;;;4945266;28;20095;-63
2023/05/05 05:38:40;;;;;;;2.13;1.15;;;2.80;99.90;;;;;;4948062;28;20083;-66
2023/05/05 05:41:08;;;;;;;1.98;1.20;;;2.80;99.90;;;;;;4948051;28;20051;-63
2023/05/05 05:43:36;;;;;;;5.63;1.30;;;2.90;99.90;;;;;;4945782;28;20559;-65
2023/05/05 05:46:03;;;;;;;4.82;1.00;;;3.00;99.90;;;;;;4959714;28;20102;-63
2023/05/05 05:48:35;;;;;;;9.95;3.35;;;3.10;99.90;;;;;;4945062;28;20043;-63
2023/05/05 05:51:02;;;;;;;2.35;1.20;;;3.10;99.90;;;;;;4942518;28;20111;-76
2023/05/05 05:53:29;;;;;;;2.92;1.88;;;3.30;99.90;;;;;;4937615;28;20121;-65
2023/05/05 05:55:56;;;;;;;2.00;1.40;;;3.30;99.90;;;;;;4949093;28;20059;-63
2023/05/05 05:58:23;;;;;;;3.10;1.77;;;3.30;99.90;;;;;;4959474;28;20046;-66
2023/05/05 06:00:50;;;;;;;1.30;0.82;;;3.40;99.90;;;;;;4965213;28;20035;-66
2023/05/05 06:03:17;;;;;;;2.67;1.45;;;3.50;99.90;;;;;;4951044;28;20051;-66
2023/05/05 06:05:47;;;;;;;2.17;1.20;;;3.60;99.90;;;;;;4947021;28;20043;-66
2023/05/05 06:08:14;;;;;;;0.82;0.52;;;3.70;99.90;;;;;;4963429;28;20776;-63
2023/05/05 06:10:47;;;;;;;1.05;0.70;;;3.70;99.90;;;;;;4949032;28;21092;-72
2023/05/05 06:13:17;;;;;;;4.53;0.70;;;3.80;99.90;;;;;;4962052;28;20058;-66
2023/05/05 06:15:47;;;;;;;1.10;0.60;;;3.80;99.90;;;;;;4948958;28;20042;-63
2023/05/05 06:18:15;;;;;;;2.90;0.80;;;3.90;99.90;;;;;;4965383;28;20055;-63
2023/05/05 06:20:42;;;;;;;6.45;1.50;;;3.90;99.60;;;;;;4946527;28;20070;-66
2023/05/05 06:23:10;;;;;;;2.55;0.57;;;4.00;99.60;;;;;;4963612;28;20051;-66
2023/05/05 06:25:42;;;;;;;3.90;1.23;;;4.00;97.50;;;;;;4963444;28;20109;-64
2023/05/05 06:28:09;;;;;;;1.02;0.80;;;4.00;96.30;;;;;;4949276;28;20062;-63
2023/05/05 06:30:36;;;;;;;1.27;0.60;;;4.10;96.20;;;;;;4946217;28;20462;-63
2023/05/05 06:33:03;;;;;;;2.15;0.90;;;4.10;95.80;;;;;;4944828;28;20051;-65
2023/05/05 06:35:29;;;;;;;2.00;1.15;;;4.20;96.60;;;;;;4937087;28;20521;-65
2023/05/05 06:37:56;;;;;;;2.55;0.90;;;4.30;95.60;;;;;;4947493;28;20043;-66
2023/05/05 06:40:23;;;;;;;2.72;1.15;;;4.30;94.70;;;;;;4932222;28;20143;-73
2023/05/05 06:42:50;;;;;;;1.33;1.02;;;4.30;94.60;;;;;;4949033;28;20394;-63
2023/05/05 06:45:22;;;;;;;1.15;0.73;;;4.40;93.80;;;;;;4948750;28;20051;-65
2023/05/05 06:47:49;;;;;;;2.75;1.27;;;4.40;93.90;;;;;;4950183;28;20106;-79
2023/05/05 06:50:16;;;;;;;1.08;0.65;;;4.40;93.90;;;;;;4951277;28;20062;-63
2023/05/05 06:52:42;;;;;;;4.32;1.50;;;4.50;93.90;;;;;;4950503;28;20059;-65
2023/05/05 06:55:09;;;;;;;1.42;0.90;;;4.50;92.90;;;;;;4951143;28;20051;-78
2023/05/05 06:57:36;;;;;;;4.20;1.23;;;4.50;92.10;;;;;;4952197;28;20104;-64
2023/05/05 07:00:05;;;;;;;0.82;0.50;;;4.60;92.90;;;;;;4950210;28;20134;-63
2023/05/05 07:02:32;;;;;;;2.15;1.20;;;4.70;92.90;;;;;;4946992;28;20129;-78
2023/05/05 07:04:59;;;;;;;1.58;0.90;;;4.70;92.10;;;;;;4947148;28;20051;-68
2023/05/05 07:07:26;;;;;;;1.10;0.80;;;4.80;92.30;;;;;;4948954;28;20073;-65
2023/05/05 07:09:53;;;;;;;1.67;1.15;;;4.80;92.10;;;;;;4947251;28;20134;-66
2023/05/05 07:12:20;;;;;;;4.32;1.52;;;4.80;91.70;;;;;;4946054;28;20065;-65
2023/05/05 07:14:47;;;;;;;2.05;0.60;;;4.90;92.30;;;;;;4944260;28;20186;-65
2023/05/05 07:17:14;;;;;;;1.35;1.08;;;5.00;91.40;;;;;;4950130;28;20142;-71
2023/05/05 07:19:42;;;;;;;0.60;0.57;;;5.00;91.00;;;;;;4953590;28;20065;-65
2023/05/05 07:22:08;;;;;;;1.83;1.73;;;5.00;91.00;;;;;;4947598;28;20667;-64
2023/05/05 07:24:35;;;;;;;2.17;1.27;;;5.10;91.10;;;;;;4954282;28;20536;-76
2023/05/05 07:27:02;;;;;;;0.80;0.80;;;5.20;91.30;;;;;;4945724;28;20058;-63
2023/05/05 07:29:29;;;;;;;3.63;1.15;;;5.30;90.50;;;;;;4955109;28;20047;-68
2023/05/05 07:31:56;;;;;;;1.23;0.88;;;5.30;90.20;;;;;;4962787;28;20054;-70
2023/05/05 07:34:23;;;;;;;2.70;2.05;;;5.40;90.70;;;;;;4950922;28;20058;-64
2023/05/05 07:36:50;;;;;;;2.25;0.88;;;5.40;90.50;;;;;;4947198;28;20574;-63
2023/05/05 07:39:18;;;;;;;1.95;1.40;;;5.40;91.00;;;;;;4952487;28;20047;-64
2023/05/05 07:41:45;;;;;;;2.50;1.63;;;5.50;90.40;;;;;;4953151;28;20047;-63
2023/05/05 07:44:12;;;;;;;4.97;1.27;;;5.50;93.80;;;;;;4953127;28;20055;-64
2023/05/05 07:46:38;;;;;;;1.42;0.85;;;5.40;93.90;;;;;;4950810;28;20055;-65
2023/05/05 07:49:05;;;;;;;2.53;1.00;;;5.50;91.40;;;;;;4948826;28;20051;-63
2023/05/05 07:51:32;;;;;;;1.98;0.95;;;5.50;93.60;;;;;;4952101;28;20050;-67
2023/05/05 07:54:00;;;;;;;1.27;1.10;;;5.60;90.10;;;;;;4949022;28;20047;-67
2023/05/05 07:56:27;;;;;;;1.17;0.80;;;5.60;88.70;;;;;;4933443;28;20055;-65
2023/05/05 07:58:54;;;;;;;2.22;1.23;;;5.60;88.90;;;;;;4945112;28;20115;-63
2023/05/05 08:01:21;;;;;;;1.00;0.85;;;5.70;89.20;;;;;;4935601;28;21227;-63
2023/05/05 08:03:48;;;;;;;1.38;0.70;;;5.70;90.10;;;;;;4938741;28;20103;-63
2023/05/05 08:06:16;;;;;;;2.15;1.35;;;5.80;89.20;;;;;;4935055;28;20052;-63
2023/05/05 08:08:43;;;;;;;4.43;0.73;;;5.90;92.30;;;;;;4949776;28;20069;-66
2023/05/05 08:11:10;;;;;;;1.67;1.00;;;6.00;92.90;;;;;;4949388;28;20835;-64
2023/05/05 08:13:38;;;;;;;0.88;0.88;;;6.00;90.20;;;;;;4952906;28;20062;-68
2023/05/05 08:16:05;;;;;;;1.10;0.90;;;5.80;93.60;;;;;;4949900;28;21245;-63
2023/05/05 08:18:33;;;;;;;2.20;1.08;;;5.60;94.80;;;;;;4952291;28;20478;-65
2023/05/05 08:21:00;;;;;;;3.60;1.40;;;5.60;95.50;;;;;;4955781;28;20062;-63
2023/05/05 08:23:26;;;;;;;0.77;0.63;;;5.80;94.70;;;;;;4969696;28;20146;-63
2023/05/05 08:25:53;;;;;;;1.90;1.40;;;5.80;95.60;;;;;;4953493;28;20137;-64
2023/05/05 08:28:21;;;;;;;3.80;1.20;;;5.60;96.10;;;;;;4952020;28;20089;-69
2023/05/05 08:30:49;;;;;;;3.50;1.38;;;5.50;96.20;;;;;;4947032;28;20098;-64
2023/05/05 08:33:16;;;;;;;1.73;1.63;;;5.40;96.90;;;;;;4946696;28;20063;-67
2023/05/05 08:35:44;;;;;;;3.05;1.20;;;5.40;97.10;;;;;;4946365;28;20047;-73
2023/05/05 08:38:11;;;;;;;1.17;0.70;;;5.50;97.10;;;;;;4951876;28;20146;-78
2023/05/05 08:40:39;;;;;;;8.35;1.00;;;5.60;97.20;;;;;;4958117;28;20138;-72
2023/05/05 08:43:06;;;;;;;1.25;1.00;;;5.80;97.30;;;;;;4949063;28;20457;-65
2023/05/05 08:45:33;;;;;;;1.83;1.13;;;5.90;97.60;;;;;;4951685;28;20487;-77
2023/05/05 08:48:02;;;;;;;3.88;1.02;;;5.70;98.20;;;;;;4934703;28;20052;-64
2023/05/05 08:50:30;;;;;;;1.87;1.50;;;5.60;98.90;;;;;;4931835;28;20086;-72
2023/05/05 08:53:03;;;;;;;2.17;1.85;;;5.50;99.00;;;;;;4951849;28;20552;-77
2023/05/05 08:55:34;;;;;;;1.13;0.80;;;5.40;98.50;;;;;;4950325;28;20071;-63
2023/05/05 08:58:04;;;;;;;1.55;1.45;;;5.30;99.00;;;;;;4950798;28;20137;-63
2023/05/05 09:00:33;;;;;;;3.70;0.85;;;5.20;99.30;;;;;;4952393;28;20051;-63
2023/05/05 09:03:00;;;;;;;3.50;1.40;;;5.10;99.90;;;;;;4946727;28;20055;-62
2023/05/05 09:05:27;;;;;;;2.00;0.85;;;4.90;99.90;;;;;;4926707;28;20052;-62
2023/05/05 09:07:54;;;;;;;3.05;0.88;;;5.10;99.90;;;;;;4944287;28;20493;-63
2023/05/05 09:10:21;;;;;;;1.95;0.95;;;5.30;99.90;;;;;;4952415;28;20086;-65
2023/05/05 09:12:50;;;;;;;1.77;1.33;;;5.50;99.90;;;;;;4944837;28;20401;-64
2023/05/05 09:15:17;;;;;;;1.40;1.30;;;5.70;99.90;;;;;;4952549;28;20078;-65
2023/05/05 09:18:02;;;;;;;2.75;1.05;;;5.70;99.90;;;;;;4948639;28;20059;-65
2023/05/05 09:20:34;;;;;;;2.63;1.00;;;5.70;99.90;;;;;;4950533;28;20098;-62
2023/05/05 09:23:18;;;;;;;1.25;0.90;;;5.60;99.90;;;;;;4944953;29;20060;-65
2023/05/05 09:26:06;;;;;;;0.80;0.80;;;5.70;99.90;;;;;;4941852;28;20157;-65
2023/05/05 09:28:33;;;;;;;3.08;1.83;;;5.60;99.70;;;;;;4946714;28;20048;-65
2023/05/05 09:31:14;;;;;;;1.25;1.08;;;5.40;99.90;;;;;;4953286;28;20154;-64
2023/05/05 09:33:42;;;;;;;1.25;1.00;;;5.30;99.90;;;;;;4942847;28;20413;-66
2023/05/05 09:36:10;;;;;;;4.78;0.90;;;5.20;99.90;;;;;;4948760;28;20062;-63
2023/05/05 09:38:37;;;;;;;1.08;0.70;;;5.20;99.90;;;;;;4949846;28;20051;-69
2023/05/05 09:41:05;;;;;;;3.78;1.42;;;5.20;99.90;;;;;;4960442;28;20055;-63
2023/05/05 09:43:50;;;;;;;2.60;1.10;;;5.30;99.90;;;;;;4939532;28;20374;-64
2023/05/05 09:46:17;;;;;;;1.73;1.05;;;5.50;99.90;;;;;;4956070;28;20051;-63
2023/05/05 09:48:44;;;;;;;0.88;0.80;;;5.50;99.90;;;;;;4950064;28;20098;-63
2023/05/05 09:51:11;;;;;;;3.17;0.77;;;5.40;99.90;;;;;;4957563;28;20213;-63
2023/05/05 09:53:40;;;;;;;2.65;1.05;;;5.30;99.90;;;;;;4949451;28;20140;-69
2023/05/05 09:56:07;;;;;;;4.95;1.20;;;5.30;99.90;;;;;;4947507;28;20427;-66
2023/05/05 09:58:34;;;;;;;2.40;0.85;;;5.30;99.90;;;;;;4947713;28;20078;-64
2023/05/05 10:01:01;;;;;;;2.75;1.20;;;5.30;99.90;;;;;;4949393;28;20123;-65
2023/05/05 10:03:28;;;;;;;1.65;1.35;;;5.40;99.90;;;;;;4949480;28;20073;-63
2023/05/05 10:05:57;;;;;;;1.48;1.20;;;5.70;99.90;;;;;;4948665;28;20147;-63
2023/05/05 10:08:29;;;;;;;2.53;1.25;;;5.80;99.90;;;;;;4948383;28;20055;-64
2023/05/05 10:11:03;;;;;;;4.55;1.50;;;5.90;99.90;;;;;;4946174;28;20596;-75
2023/05/05 10:13:35;;;;;;;3.22;1.17;;;5.80;99.90;;;;;;4948288;28;20059;-69
2023/05/05 10:16:03;;;;;;;5.32;1.20;;;5.80;99.90;;;;;;4946926;28;20067;-66
2023/05/05 10:18:31;;;;;;;1.83;1.27;;;5.90;99.90;;;;;;4948587;28;20066;-64
2023/05/05 10:21:03;;;;;;;3.10;1.58;;;6.00;99.90;;;;;;4949663;28;20593;-63
2023/05/05 10:23:54;;;;;;;3.08;1.08;;;6.20;99.90;;;;;;4946171;28;20050;-63
2023/05/05 10:26:22;;;;;;;1.88;1.05;;;6.50;99.70;;;;;;4947048;28;20051;-64
2023/05/05 10:28:55;;;;;;;1.40;1.30;;;6.30;99.80;;;;;;4948994;28;20145;-63
2023/05/05 10:31:32;;;;;;;2.70;0.82;;;6.20;99.90;;;;;;4947596;28;20434;-63
2023/05/05 10:34:02;;;;;;;3.40;1.23;;;6.10;99.60;;;;;;4951498;28;20050;-63
2023/05/05 10:36:30;;;;;;;2.28;1.00;;;6.10;99.90;;;;;;4952278;28;20055;-65
2023/05/05 10:38:59;;;;;;;0.85;0.73;;;6.00;99.90;;;;;;4944443;28;20043;-64
2023/05/05 10:41:27;;;;;;;1.30;1.08;;;6.10;99.90;;;;;;4951225;28;20134;-70
2023/05/05 10:43:58;;;;;;;3.75;1.35;;;5.90;99.90;;;;;;4945666;28;20180;-64
2023/05/05 10:46:27;;;;;;;3.28;0.90;;;5.80;99.90;;;;;;4945826;28;20062;-69
2023/05/05 10:49:32;;;;;;;2.47;1.35;;;5.90;99.90;;;;;;4945112;28;20580;-67
2023/05/05 10:52:07;;;;;;;0.77;0.73;;;6.00;99.90;;;;;;4923436;28;20090;-73
2023/05/05 10:54:45;;;;;;;7.70;1.42;;;6.00;99.90;;;;;;4935160;28;20059;-63
2023/05/05 10:57:15;;;;;;;7.00;1.02;;;5.90;99.90;;;;;;4933637;28;20081;-65
2023/05/05 10:59:42;;;;;;;2.28;1.00;;;5.90;99.90;;;;;;4950256;28;20087;-66
2023/05/05 11:02:19;;;;;;;1.17;1.00;;;6.10;99.90;;;;;;4953112;28;20146;-70
2023/05/05 11:05:22;;;;;;;2.08;1.20;;;6.20;99.90;;;;;;4953774;28;20449;-66
2023/05/05 11:07:50;;;;;;;4.72;1.00;;;6.10;99.90;;;;;;4932681;29;20505;-62
2023/05/05 11:10:19;;;;;;;3.00;1.30;;;5.90;99.90;;;;;;4936984;28;20075;-63
2023/05/05 11:12:58;;;;;;;2.70;1.38;;;5.90;99.90;;;;;;4935427;28;20064;-78
2023/05/05 11:15:28;;;;;;;1.25;1.00;;;6.10;99.90;;;;;;4944978;28;20066;-63
2023/05/05 11:17:57;;;;;;;2.88;0.90;;;6.30;99.90;;;;;;4946060;28;20869;-63
2023/05/05 11:20:39;;;;;;;2.00;1.27;;;6.60;99.70;;;;;;4954605;28;20066;-63
2023/05/05 11:23:06;;;;;;;2.53;1.63;;;6.90;99.90;;;;;;4956509;28;20524;-66
2023/05/05 11:25:39;;;;;;;1.17;0.88;;;7.00;99.50;;;;;;4950981;28;20087;-66
2023/05/05 11:28:15;;;;;;;2.53;0.93;;;6.90;99.30;;;;;;4953879;28;20043;-72
2023/05/05 11:30:54;;;;;;;1.65;1.05;;;6.90;99.40;;;;;;4955378;28;20048;-63
2023/05/05 11:33:32;;;;;;;1.87;1.33;;;6.60;99.70;;;;;;4956503;28;20125;-62
2023/05/05 11:35:59;;;;;;;3.03;1.15;;;6.50;99.30;;;;;;4947638;28;20051;-63
2023/05/05 11:38:35;;;;;;;3.85;1.02;;;6.40;99.20;;;;;;4953933;28;20134;-63
2023/05/05 11:41:25;;;;;;;2.58;0.88;;;6.30;99.80;;;;;;4955740;28;20057;-63
2023/05/05 11:44:09;;;;;;;;;;;6.10;99.90;;;;;;4953414;28;20130;-64
2023/05/05 11:46:36;;;;;;;3.13;1.20;;;6.00;99.90;;;;;;4953286;28;20480;-62
2023/05/05 11:49:03;;;;;;;0.60;0.60;;;6.00;99.90;;;;;;4958049;28;20055;-62
2023/05/05 11:51:30;;;;;;;5.50;1.42;;;6.10;99.70;;;;;;4960734;28;20047;-63
2023/05/05 11:53:57;;;;;;;2.83;1.30;;;6.30;99.90;;;;;;4958190;28;20154;-64
2023/05/05 11:56:25;;;;;;;2.22;1.00;;;6.10;99.90;;;;;;4952651;28;20087;-63
2023/05/05 11:59:09;;;;;;;4.93;1.25;;;5.90;99.90;;;;;;4956753;28;20150;-63
2023/05/05 12:01:42;;;;;;;1.52;0.98;;;5.80;99.90;;;;;;4954356;28;20147;-64
2023/05/05 12:04:15;;;;;;;2.40;0.88;;;5.70;99.90;;;;;;4955864;28;20050;-65
2023/05/05 12:06:43;;;;;;;2.58;1.50;;;5.80;99.90;;;;;;4951863;28;20141;-65
2023/05/05 12:09:19;;;;;;;2.33;1.65;;;6.00;99.10;;;;;;4955439;28;20054;-70
2023/05/05 12:11:54;;;;;;;1.33;1.23;;;6.20;99.90;;;;;;4952600;28;20050;-62
2023/05/05 12:14:22;;;;;;;2.15;1.27;;;6.20;99.90;;;;;;4951573;28;20130;-65
2023/05/05 12:17:02;;;;;;;3.58;1.50;;;6.30;99.90;;;;;;4947266;28;20137;-63
2023/05/05 12:19:32;;;;;;;1.48;1.05;;;6.30;99.90;;;;;;4945911;28;20454;-63
2023/05/05 12:22:03;;;;;;;7.15;1.27;;;6.20;99.90;;;;;;4952193;28;20058;-65
2023/05/05 12:24:30;;;;;;;4.10;1.20;;;6.40;99.80;;;;;;4949631;28;20059;-64
2023/05/05 12:27:10;;;;;;;1.50;1.27;;;6.70;99.60;;;;;;4954842;28;20089;-63
2023/05/05 12:29:37;;;;;;;4.23;1.10;;;6.60;99.90;;;;;;4955861;28;20083;-63
2023/05/05 12:32:04;;;;;;;3.17;0.77;;;6.60;99.90;;;;;;4952183;28;20141;-63
2023/05/05 12:34:31;;;;;;;1.92;0.93;;;6.30;99.90;;;;;;4946705;28;20051;-65
2023/05/05 12:36:59;;;;;;;4.45;1.30;;;6.50;99.90;;;;;;4930499;28;20044;-63
2023/05/05 12:39:36;;;;;;;2.08;1.27;;;6.60;99.30;;;;;;4932677;28;20051;-64
2023/05/05 12:42:03;;;;;;;2.88;1.00;;;6.60;99.70;;;;;;4941321;28;20051;-67
2023/05/05 12:44:37;;;;;;;3.05;0.77;;;6.60;99.70;;;;;;4949060;28;20110;-68
2023/05/05 12:47:05;;;;;;;1.75;1.38;;;6.40;99.90;;;;;;4945525;28;20051;-63
2023/05/05 12:49:44;;;;;;;2.90;0.80;;;6.50;99.90;;;;;;4944570;28;20501;-64
2023/05/05 12:52:10;;;;;;;2.08;1.10;;;6.60;98.50;;;;;;4945730;28;20047;-63
2023/05/05 12:54:58;;;;;;;1.70;1.48;;;6.50;99.70;;;;;;4944990;28;20051;-63
2023/05/05 12:57:25;;;;;;;3.75;1.10;;;6.50;99.90;;;;;;4950925;28;20047;-63
2023/05/05 12:59:52;;;;;;;2.55;0.80;;;6.70;99.90;;;;;;4965245;28;20058;-66
2023/05/05 13:02:19;;;;;;;4.07;1.50;;;7.10;99.40;;;;;;4947438;28;20051;-63
2023/05/05 13:04:56;;;;;;;1.95;1.25;;;7.20;98.90;;;;;;4930227;28;20050;-68
2023/05/05 13:07:22;;;;;;;0.82;0.77;;;7.20;99.00;;;;;;4944058;28;20054;-73
2023/05/05 13:09:50;;;;;;;2.33;2.13;;;7.00;98.60;;;;;;4943181;28;20065;-64